RKSI Airport Information

Runway Information
Runway 15L Length 12303 ft width 197 ft
Elevation 23 ft Threshold 0 ft Heading 145
Runway 33R Length 12303 ft Width 197 ft
Elevation 23 ft Threshold 0 ft Heading 325
Runway 15R Length 12303 ft width 197 ft
Elevation 23 ft Threshold 0 ft Heading 145
Runway 33L Length 12303 ft Width 197 ft
Elevation 23 ft Threshold 0 ft Heading 325
Runway 16 Length 13000 ft width 197 ft
Elevation 0 ft Threshold 0 ft Heading 153
Runway 34 Length 13000 ft Width 197 ft
Elevation 0 ft Threshold 0 ft Heading 333
Airport Frequencies
Type APP Name SEOUL APP Frequency 120.8 MHZ
Type ATIS Name ATIS Frequency 23.025 MHZ
Type CLD Name CLNC DEL Frequency 121 MHZ
Type DEP Name SEOUL DEP Frequency 121.35 MHZ
Type GND Name GND Frequency 121.4 MHZ
Type RMP Name RAMP CON Frequency 121.65 MHZ
Type TWR Name TWR Frequency 118.2 MHZ
Airport Navaids
Type VOR-DME Name Incheon Frequency 113800 KHZ
Airport Weather Information & NOTAM
ADDS - METARS form results

(1455 UTC 22 July 2018)
 
METAR text: RKSI 221430Z 33004KT CAVOK 28/21 Q1009 NOSIG
Conditions at: RKSI (CHAJANG NI , KR) observed 1430 UTC 22 July 2018
Temperature: 28.0°C (82°F)
Dewpoint: 21.0°C (70°F) [RH = 66%]
Pressure (altimeter): 29.79 inches Hg (1009.0 mb)
Winds: from the NNW (330 degrees) at 5 MPH (4 knots; 2.1 m/s)
Visibility: 6 or more miles (10+ km)
Ceiling: ceiling and visibility are OK
Clouds: unknown
Weather: no significant weather observed at this time

METAR text: RKSI 221400Z 33004KT CAVOK 29/20 Q1009 NOSIG
Conditions at: RKSI (CHAJANG NI , KR) observed 1400 UTC 22 July 2018
Temperature: 29.0°C (84°F)
Dewpoint: 20.0°C (68°F) [RH = 58%]
Pressure (altimeter): 29.79 inches Hg (1009.0 mb)
Winds: from the NNW (330 degrees) at 5 MPH (4 knots; 2.1 m/s)
Visibility: 6 or more miles (10+ km)
Ceiling: ceiling and visibility are OK
Clouds: unknown
Weather: no significant weather observed at this time